createdAt,value
2018-05-18T00:01:30.577Z,97.10
2018-05-18T00:03:59.450Z,97.10
2018-05-18T00:06:28.323Z,96.90
2018-05-18T00:08:57.233Z,97.00
2018-05-18T00:11:26.114Z,97.10
2018-05-18T00:13:55.043Z,97.10
2018-05-18T00:16:23.907Z,97.10
2018-05-18T00:18:52.797Z,97.00
2018-05-18T00:21:21.683Z,97.10
2018-05-18T00:23:50.551Z,96.90
2018-05-18T00:26:19.436Z,96.80
2018-05-18T00:28:48.325Z,97.00
2018-05-18T00:31:17.188Z,96.80
2018-05-18T00:33:46.063Z,96.80
2018-05-18T00:36:14.947Z,96.90
2018-05-18T00:38:43.835Z,96.80
2018-05-18T00:41:12.726Z,97.00
2018-05-18T00:43:41.589Z,97.00
2018-05-18T00:46:10.487Z,97.10
2018-05-18T00:48:40.111Z,97.40
2018-05-18T00:51:08.978Z,97.40
2018-05-18T00:53:37.868Z,97.40
2018-05-18T00:56:06.731Z,97.60
2018-05-18T00:58:35.604Z,97.70
2018-05-18T01:01:04.515Z,97.70
2018-05-18T01:03:33.374Z,97.70
2018-05-18T01:06:02.283Z,97.40
2018-05-18T01:08:31.152Z,97.40
2018-05-18T01:11:00.025Z,97.40
2018-05-18T01:13:28.919Z,97.40
2018-05-18T01:15:58.655Z,97.60
2018-05-18T01:18:27.475Z,97.60
2018-05-18T01:20:56.343Z,97.60
2018-05-18T01:23:25.223Z,97.60
2018-05-18T01:25:54.179Z,97.70
2018-05-18T01:28:23.047Z,97.50
2018-05-18T01:30:51.913Z,97.60
2018-05-18T01:33:20.844Z,97.50
2018-05-18T01:35:50.476Z,97.60
2018-05-18T01:38:19.360Z,97.60
2018-05-18T01:40:48.244Z,97.30
2018-05-18T01:43:17.137Z,97.20
2018-05-18T01:45:46.022Z,97.30
2018-05-18T01:48:15.658Z,97.30
2018-05-18T01:50:44.567Z,97.20
2018-05-18T01:53:13.441Z,97.50
2018-05-18T01:55:42.303Z,97.60
2018-05-18T01:58:11.199Z,97.60
2018-05-18T02:00:40.084Z,97.70
2018-05-18T02:03:08.951Z,97.60
2018-05-18T02:05:37.845Z,97.50
2018-05-18T02:08:07.479Z,97.20
2018-05-18T02:10:36.343Z,97.20
2018-05-18T02:13:05.242Z,97.30
2018-05-18T02:15:34.111Z,97.40
2018-05-18T02:18:02.975Z,97.60
2018-05-18T02:20:31.871Z,97.60
2018-05-18T02:23:00.736Z,97.60
2018-05-18T02:25:29.600Z,97.50
2018-05-18T02:27:58.512Z,97.50
2018-05-18T02:30:27.377Z,97.60
2018-05-18T02:32:56.268Z,97.50
2018-05-18T02:35:25.142Z,97.60
2018-05-18T02:37:54.049Z,97.70
2018-05-18T02:40:22.919Z,97.70
2018-05-18T02:42:51.784Z,97.80
2018-05-18T02:45:21.434Z,97.70
2018-05-18T02:47:50.297Z,97.70
2018-05-18T02:50:19.231Z,97.70
2018-05-18T02:52:48.855Z,98.00
2018-05-18T02:55:17.743Z,98.00
2018-05-18T02:57:46.636Z,98.00
2018-05-18T03:00:15.532Z,97.80
2018-05-18T03:02:45.203Z,98.00
2018-05-18T03:05:14.071Z,98.00
2018-05-18T03:07:42.936Z,98.00
2018-05-18T03:10:11.833Z,98.10
2018-05-18T03:12:40.697Z,98.10
2018-05-18T03:15:09.560Z,98.10
2018-05-18T03:17:38.455Z,98.10
2018-05-18T03:20:07.323Z,98.00
2018-05-18T03:22:36.225Z,98.10
2018-05-18T03:25:05.878Z,98.00
2018-05-18T03:27:34.775Z,98.00
2018-05-18T03:30:03.693Z,97.70
2018-05-18T03:32:32.603Z,97.70
2018-05-18T03:35:01.464Z,97.40
2018-05-18T03:37:30.328Z,97.70
2018-05-18T03:39:59.214Z,97.40
2018-05-18T03:42:28.079Z,97.30
2018-05-18T03:44:56.972Z,97.20
2018-05-18T03:47:25.844Z,97.10
2018-05-18T03:49:54.747Z,97.20
2018-05-18T03:52:23.638Z,97.50
2018-05-18T03:54:53.272Z,97.10
2018-05-18T03:57:22.138Z,97.10
2018-05-18T03:59:51.047Z,97.10
2018-05-18T04:02:37.509Z,97.40
2018-05-18T04:05:23.894Z,97.60
2018-05-18T04:08:10.451Z,97.50
2018-05-18T04:10:39.319Z,97.30
2018-05-18T04:13:08.188Z,97.10
2018-05-18T04:15:37.859Z,95.70
2018-05-18T04:18:06.728Z,95.70
2018-05-18T04:20:35.604Z,95.10
2018-05-18T04:23:04.497Z,94.70
2018-05-18T04:25:34.136Z,93.30
2018-05-18T04:28:03.028Z,93.30
2018-05-18T04:30:32.028Z,93.20
2018-05-18T04:33:00.875Z,93.10
2018-05-18T04:35:29.746Z,93.00
2018-05-18T04:37:58.616Z,93.70
2018-05-18T04:40:27.499Z,93.30
2018-05-18T04:42:56.459Z,92.90
2018-05-18T04:45:26.398Z,91.90
2018-05-18T04:47:55.283Z,91.90
2018-05-18T04:50:24.146Z,90.90
2018-05-18T04:52:53.071Z,88.00
2018-05-18T04:55:21.992Z,83.80
2018-05-18T04:57:51.651Z,79.50
2018-05-18T05:00:20.543Z,79.30
2018-05-18T05:02:49.418Z,77.10
2018-05-18T05:05:18.312Z,77.00
2018-05-18T05:07:47.182Z,75.50
2018-05-18T05:10:16.990Z,76.10
2018-05-18T05:12:45.890Z,73.80
2018-05-18T05:15:15.526Z,72.00
2018-05-18T05:17:44.403Z,72.00
2018-05-18T05:20:13.296Z,71.90
2018-05-18T05:22:42.220Z,71.00
2018-05-18T05:25:11.095Z,67.20
2018-05-18T05:27:39.965Z,66.10
2018-05-18T05:30:08.863Z,66.10
2018-05-18T05:32:37.732Z,63.40
2018-05-18T05:35:06.631Z,65.60
2018-05-18T05:37:35.509Z,66.80
2018-05-18T05:40:04.419Z,69.30
2018-05-18T05:42:34.080Z,70.50
2018-05-18T05:45:02.997Z,70.50
2018-05-18T05:47:32.639Z,65.10
2018-05-18T05:50:01.519Z,65.10
2018-05-18T05:52:30.433Z,63.10
2018-05-18T05:55:00.070Z,57.90
2018-05-18T05:57:28.946Z,57.80
2018-05-18T05:59:57.839Z,56.80
2018-05-18T06:02:26.721Z,56.10
2018-05-18T06:04:55.611Z,54.70
2018-05-18T06:07:24.504Z,58.20
2018-05-18T06:09:53.409Z,55.60
2018-05-18T06:12:22.352Z,57.10
2018-05-18T06:14:51.260Z,55.00
2018-05-18T06:17:20.160Z,57.10
2018-05-18T06:19:49.067Z,56.70
2018-05-18T06:22:17.937Z,56.80
2018-05-18T06:24:46.811Z,56.30
2018-05-18T06:27:15.703Z,55.70
2018-05-18T06:29:45.344Z,53.60
2018-05-18T06:32:14.220Z,53.50
2018-05-18T06:34:43.211Z,53.80
2018-05-18T06:37:12.023Z,53.10
2018-05-18T06:39:42.350Z,52.60
2018-05-18T06:42:11.243Z,52.50
2018-05-18T06:44:40.121Z,51.90
2018-05-18T06:47:09.020Z,51.10
2018-05-18T06:49:37.915Z,50.00
2018-05-18T06:52:07.548Z,49.80
2018-05-18T06:54:36.445Z,49.80
2018-05-18T06:57:05.315Z,45.30
2018-05-18T06:59:34.209Z,47.00
2018-05-18T07:02:03.084Z,47.90
2018-05-18T07:04:31.963Z,47.50
2018-05-18T07:07:00.872Z,45.40
2018-05-18T07:09:29.756Z,42.90
2018-05-18T07:11:58.623Z,40.90
2018-05-18T07:14:28.325Z,42.40
2018-05-18T07:16:57.197Z,42.40
2018-05-18T07:19:26.068Z,42.70
2018-05-18T07:21:54.994Z,42.50
2018-05-18T07:24:23.883Z,43.00
2018-05-18T07:26:52.752Z,44.10
2018-05-18T07:29:21.656Z,45.70
2018-05-18T07:31:51.306Z,46.60
2018-05-18T07:34:20.219Z,46.60
2018-05-18T07:36:49.120Z,45.60
2018-05-18T07:39:18.024Z,45.10
2018-05-18T07:41:46.901Z,46.40
2018-05-18T07:44:15.823Z,45.10
2018-05-18T07:46:44.708Z,45.50
2018-05-18T07:49:13.580Z,45.60
2018-05-18T07:51:42.492Z,44.50
2018-05-18T07:54:11.377Z,47.90
2018-05-18T07:56:40.258Z,46.10
2018-05-18T07:59:09.177Z,45.40
2018-05-18T08:01:38.819Z,45.10
2018-05-18T08:04:07.706Z,45.10
2018-05-18T08:06:36.616Z,46.10
2018-05-18T08:09:06.316Z,47.90
2018-05-18T08:11:35.984Z,50.60
2018-05-18T08:14:04.903Z,50.60
2018-05-18T08:16:33.839Z,49.00
2018-05-18T08:19:02.711Z,47.90
2018-05-18T08:21:31.598Z,48.20
2018-05-18T08:24:01.277Z,47.50
2018-05-18T08:26:31.338Z,47.50
2018-05-18T08:29:17.818Z,47.40
2018-05-18T08:31:46.698Z,47.90
2018-05-18T08:34:15.596Z,47.00
2018-05-18T08:36:44.472Z,47.00
2018-05-18T08:39:13.491Z,48.00
2018-05-18T08:41:42.339Z,47.90
2018-05-18T08:44:11.260Z,48.60
2018-05-18T08:46:40.138Z,48.40
2018-05-18T08:49:09.045Z,50.00
2018-05-18T08:51:37.944Z,50.70
2018-05-18T08:54:06.845Z,49.30
2018-05-18T08:56:35.724Z,48.90
2018-05-18T08:59:04.591Z,50.30
2018-05-18T09:01:34.271Z,49.40
2018-05-18T09:04:03.943Z,49.20
2018-05-18T09:06:33.727Z,49.20
2018-05-18T09:09:02.635Z,49.40
2018-05-18T09:11:31.541Z,49.40
2018-05-18T11:25:16.393Z,47.60
2018-05-18T11:27:46.660Z,48.40
2018-05-18T11:30:15.575Z,48.40
2018-05-18T11:32:45.217Z,50.00
2018-05-18T11:35:14.086Z,50.00
2018-05-18T11:37:43.016Z,49.90
2018-05-18T11:40:11.887Z,50.00
2018-05-18T11:42:40.767Z,50.00
2018-05-18T11:45:10.443Z,52.80
2018-05-18T11:47:39.319Z,52.80
2018-05-18T11:50:08.192Z,52.60
2018-05-18T11:52:37.085Z,54.00
2018-05-18T11:55:06.744Z,51.10
2018-05-18T11:57:35.645Z,51.10
2018-05-18T12:00:04.616Z,51.70
2018-05-18T12:02:33.525Z,51.90
2018-05-18T12:05:02.416Z,52.50
2018-05-18T12:07:31.290Z,51.60
2018-05-18T12:10:00.187Z,53.00
2018-05-18T12:12:29.064Z,52.60
2018-05-18T12:14:57.936Z,52.40
2018-05-18T12:17:26.847Z,53.60
2018-05-18T12:19:56.490Z,53.20
2018-05-18T12:22:25.360Z,53.20
2018-05-18T12:24:54.250Z,53.80
2018-05-18T12:27:23.118Z,51.50
2018-05-18T12:29:51.992Z,52.30
2018-05-18T12:32:20.908Z,53.10
2018-05-18T12:34:49.783Z,53.00
2018-05-18T12:37:18.655Z,53.30
2018-05-18T12:39:47.567Z,52.80
2018-05-18T12:42:16.447Z,55.40
2018-05-18T12:44:45.436Z,53.90
2018-05-18T12:47:14.231Z,55.50
2018-05-18T12:49:43.104Z,54.80
2018-05-18T12:52:12.014Z,56.80
2018-05-18T12:54:41.703Z,56.30
2018-05-18T12:57:10.576Z,56.30
2018-05-18T12:59:40.241Z,53.40
2018-05-18T13:02:09.140Z,53.40
2018-05-18T13:04:38.011Z,54.20
2018-05-18T13:07:07.692Z,55.40
2018-05-18T13:09:36.565Z,55.50
2018-05-18T13:12:05.463Z,55.60
2018-05-18T13:14:35.128Z,52.80
2018-05-18T13:17:04.064Z,52.80
2018-05-18T13:19:32.955Z,55.20
2018-05-18T13:22:01.852Z,54.10
2018-05-18T13:24:30.746Z,55.60
2018-05-18T13:26:59.651Z,54.90
2018-05-18T13:29:28.528Z,54.10
2018-05-18T13:31:57.406Z,54.90
2018-05-18T13:34:26.336Z,54.60
2018-05-18T13:36:55.209Z,54.80
2018-05-18T13:39:25.854Z,53.90
2018-05-18T13:41:55.520Z,53.30
2018-05-18T13:44:24.422Z,53.30
2018-05-18T13:46:54.114Z,48.70
2018-05-18T13:49:23.751Z,49.80
2018-05-18T13:51:52.731Z,49.80
2018-05-18T13:54:21.551Z,51.00
2018-05-18T13:56:51.195Z,52.30
2018-05-18T13:59:20.104Z,52.30
2018-05-18T14:01:48.979Z,51.60
2018-05-18T14:04:17.871Z,48.20
2018-05-18T14:06:47.536Z,47.70
2018-05-18T14:09:16.419Z,47.80
2018-05-18T14:11:45.291Z,49.30
2018-05-18T14:14:14.199Z,50.80
2018-05-18T14:16:43.832Z,50.00
2018-05-18T14:19:12.722Z,50.00
2018-05-18T14:21:41.615Z,50.40
2018-05-18T14:24:10.523Z,52.60
2018-05-18T14:26:39.459Z,53.40
2018-05-18T14:29:08.334Z,53.70
2018-05-18T14:31:37.248Z,55.20
2018-05-18T14:34:06.130Z,54.00
2018-05-18T14:36:35.004Z,52.50
2018-05-18T14:39:04.016Z,53.10
2018-05-18T14:41:32.897Z,51.90
2018-05-18T14:44:01.873Z,48.40
2018-05-18T14:46:30.945Z,48.80
2018-05-18T14:48:59.815Z,50.60
2018-05-18T14:51:28.722Z,50.60
2018-05-18T14:53:58.388Z,48.30
2018-05-18T14:56:27.256Z,48.30
2018-05-18T14:58:56.171Z,47.70
2018-05-18T15:01:25.048Z,47.30
2018-05-18T15:03:53.938Z,47.40
2018-05-18T15:06:23.616Z,49.60
2018-05-18T15:08:52.491Z,49.60
2018-05-18T15:11:22.135Z,48.20
2018-05-18T15:13:51.031Z,48.00
2018-05-18T15:16:19.977Z,47.50
2018-05-18T15:18:48.825Z,47.00
2018-05-18T15:21:18.492Z,49.80
2018-05-18T15:23:47.409Z,49.80
2018-05-18T15:26:16.285Z,48.50
2018-05-18T15:28:45.234Z,48.50
2018-05-18T15:31:14.074Z,52.60
2018-05-18T15:33:42.996Z,53.40
2018-05-18T15:36:12.636Z,53.50
2018-05-18T15:38:41.512Z,53.50
2018-05-18T15:41:10.418Z,51.70
2018-05-18T15:43:40.067Z,49.60
2018-05-18T15:46:09.037Z,49.50
2018-05-18T15:48:37.919Z,50.60
2018-05-18T15:51:06.803Z,51.30
2018-05-18T15:53:35.723Z,52.10
2018-05-18T15:56:05.372Z,54.00
2018-05-18T15:58:34.256Z,54.00
2018-05-18T16:01:03.176Z,55.20
2018-05-18T16:03:32.047Z,56.50
2018-05-18T16:06:01.685Z,53.20
2018-05-18T16:08:30.592Z,53.20
2018-05-18T16:10:59.540Z,53.90
2018-05-18T16:13:28.453Z,54.90
2018-05-18T16:15:58.103Z,56.10
2018-05-18T16:18:27.017Z,56.10
2018-05-18T16:20:55.941Z,57.50
2018-05-18T16:23:24.800Z,60.00
2018-05-18T16:25:53.701Z,61.20
2018-05-18T16:28:22.612Z,61.90
2018-05-18T16:30:51.485Z,64.40
2018-05-18T16:33:20.396Z,65.60
2018-05-18T16:35:49.293Z,65.40
2018-05-18T16:38:18.171Z,66.00
2018-05-18T16:40:47.044Z,66.70
2018-05-18T16:43:15.939Z,66.90
2018-05-18T16:45:44.836Z,67.90
2018-05-18T16:48:14.499Z,67.50
2018-05-18T16:50:43.370Z,67.50
2018-05-18T16:53:12.278Z,68.20
2018-05-18T16:55:41.150Z,67.40
2018-05-18T16:58:10.837Z,66.90
2018-05-18T17:00:39.746Z,66.90
2018-05-18T17:03:08.648Z,66.20
2018-05-18T17:05:37.518Z,66.70
2018-05-18T17:08:06.412Z,67.50
2018-05-18T17:10:35.282Z,68.80
2018-05-18T17:13:04.222Z,69.50
2018-05-18T17:15:33.112Z,69.20
2018-05-18T17:18:01.989Z,68.60
2018-05-18T17:20:30.907Z,69.40
2018-05-18T17:22:59.789Z,70.60
2018-05-18T17:25:28.679Z,72.00
2018-05-18T17:27:58.343Z,70.00
2018-05-18T17:30:27.226Z,70.00
2018-05-18T17:32:56.167Z,70.30
2018-05-18T17:35:25.059Z,70.10
2018-05-18T17:37:54.845Z,71.90
2018-05-18T17:40:23.753Z,71.80
2018-05-18T17:42:52.631Z,71.50
2018-05-18T17:45:21.547Z,73.20
2018-05-18T17:47:50.432Z,74.00
2018-05-18T17:50:19.351Z,73.80
2018-05-18T17:52:48.232Z,74.70
2018-05-18T17:55:17.120Z,74.60
2018-05-18T17:57:46.783Z,76.00
2018-05-18T18:00:15.680Z,76.00
2018-05-18T18:02:45.364Z,75.70
2018-05-18T18:05:14.273Z,75.60
2018-05-18T18:07:43.152Z,75.90
2018-05-18T18:10:12.075Z,77.40
2018-05-18T18:12:40.972Z,77.50
2018-05-18T18:15:10.615Z,78.10
2018-05-18T18:17:39.511Z,78.00
2018-05-18T18:20:08.408Z,78.20
2018-05-18T18:22:37.291Z,78.70
2018-05-18T18:25:06.971Z,80.90
2018-05-18T18:27:35.852Z,80.80
2018-05-18T18:30:04.750Z,80.90
2018-05-18T18:32:34.422Z,80.70
2018-05-18T18:35:04.080Z,81.30
2018-05-18T18:37:32.962Z,81.20
2018-05-18T18:40:01.874Z,83.80
2018-05-18T18:42:31.524Z,84.80
2018-05-18T18:45:00.396Z,84.70
2018-05-18T18:47:29.292Z,86.20
2018-05-18T18:49:58.195Z,86.60
2018-05-18T18:52:27.836Z,88.00
2018-05-18T18:54:56.760Z,88.00
2018-05-18T18:57:26.405Z,88.50
2018-05-18T18:59:55.284Z,88.50
2018-05-18T19:02:24.175Z,89.40
2018-05-18T19:04:53.063Z,90.10
2018-05-18T19:07:21.932Z,90.60
2018-05-18T19:09:50.830Z,90.60
2018-05-18T19:12:20.484Z,90.20
2018-05-18T19:14:49.368Z,90.20
2018-05-18T19:17:18.267Z,90.90
2018-05-18T19:19:47.919Z,91.60
2018-05-18T19:22:16.826Z,91.60
2018-05-18T19:24:45.710Z,90.70
2018-05-18T19:27:15.367Z,91.00
2018-05-18T19:29:44.368Z,91.00
2018-05-18T19:32:13.183Z,90.90
2018-05-18T19:34:42.126Z,90.90
2018-05-18T19:37:11.785Z,91.70
2018-05-18T19:39:40.692Z,91.70
2018-05-18T19:42:10.335Z,92.90
2018-05-18T19:44:39.247Z,92.90
2018-05-18T19:47:08.123Z,93.30
2018-05-18T19:49:36.991Z,93.70
2018-05-18T19:52:05.907Z,94.30
2018-05-18T19:54:34.783Z,94.60
2018-05-18T19:57:03.667Z,94.80
2018-05-18T19:59:32.555Z,95.20
2018-05-18T20:02:01.436Z,95.30
2018-05-18T20:04:30.412Z,95.50
2018-05-18T20:07:00.040Z,95.70
2018-05-18T20:09:28.926Z,95.70
2018-05-18T20:11:58.573Z,96.30
2018-05-18T20:14:27.468Z,96.00
2018-05-18T20:16:56.368Z,95.70
2018-05-18T20:19:26.052Z,95.70
2018-05-18T20:21:54.924Z,95.70
2018-05-18T20:24:23.849Z,95.80
2018-05-18T20:26:52.740Z,95.80
2018-05-18T20:29:21.628Z,96.10
2018-05-18T20:31:50.540Z,96.00
2018-05-18T20:34:20.184Z,95.90
2018-05-18T20:36:49.100Z,95.90
2018-05-18T20:39:17.979Z,96.00
2018-05-18T20:41:47.639Z,96.10
2018-05-18T20:44:16.520Z,96.10
2018-05-18T20:46:45.416Z,96.30
2018-05-18T20:49:14.291Z,96.40
2018-05-18T20:51:43.255Z,96.50
2018-05-18T20:54:12.855Z,96.60
2018-05-18T20:56:41.732Z,96.60
2018-05-18T20:59:10.648Z,96.90
2018-05-18T21:01:39.532Z,96.90
2018-05-18T21:04:08.460Z,97.00
2018-05-18T21:06:37.402Z,97.00
2018-05-18T21:09:06.287Z,97.00
2018-05-18T21:11:35.164Z,96.90
2018-05-18T21:14:04.064Z,97.00
2018-05-18T21:16:33.712Z,97.10
2018-05-18T21:19:02.621Z,97.00
2018-05-18T21:21:31.547Z,97.30
2018-05-18T21:24:00.437Z,97.30
2018-05-18T21:26:29.320Z,97.20
2018-05-18T21:28:58.259Z,97.20
2018-05-18T21:31:27.139Z,97.10
2018-05-18T21:33:56.022Z,97.40
2018-05-18T21:36:24.936Z,97.50
2018-05-18T21:38:53.814Z,97.50
2018-05-18T21:41:22.752Z,97.60
2018-05-18T21:43:51.661Z,97.60
2018-05-18T21:46:20.552Z,97.70
2018-05-18T21:48:49.467Z,97.60
2018-05-18T21:51:18.351Z,97.70
2018-05-18T21:53:47.248Z,97.60
2018-05-18T21:56:16.152Z,97.40
2018-05-18T21:58:45.032Z,97.50
2018-05-18T22:01:14.706Z,97.40
2018-05-18T22:03:43.620Z,97.40
2018-05-18T22:06:12.500Z,97.40
2018-05-18T22:08:41.411Z,97.60
2018-05-18T22:11:10.293Z,97.50
2018-05-18T22:13:39.176Z,97.60
2018-05-18T22:16:08.090Z,97.60
2018-05-18T22:18:36.995Z,97.70
2018-05-18T22:21:05.869Z,97.70
2018-05-18T22:23:34.744Z,97.90
2018-05-18T22:26:03.668Z,97.90
2018-05-18T22:28:32.549Z,98.10
2018-05-18T22:31:02.192Z,98.30
2018-05-18T22:33:31.111Z,98.30
2018-05-18T22:35:59.999Z,98.20
2018-05-18T22:38:28.917Z,98.00
2018-05-18T22:40:57.839Z,98.10
2018-05-18T22:43:26.719Z,98.30
2018-05-18T22:45:56.371Z,98.20
2018-05-18T22:48:25.263Z,98.20
2018-05-18T22:50:54.192Z,98.20
2018-05-18T22:53:23.088Z,98.50
2018-05-18T22:55:51.975Z,98.50
2018-05-18T22:58:20.902Z,98.40
2018-05-18T23:00:50.540Z,98.40
2018-05-18T23:03:19.443Z,98.40
2018-05-18T23:05:48.347Z,98.50
2018-05-18T23:08:17.240Z,98.40
2018-05-18T23:10:46.168Z,97.90
2018-05-18T23:13:15.824Z,98.00
2018-05-18T23:15:44.701Z,98.00
2018-05-18T23:18:13.606Z,97.90
2018-05-18T23:20:42.511Z,97.70
2018-05-18T23:23:12.149Z,97.60
2018-05-18T23:25:41.020Z,97.60
2018-05-18T23:28:09.935Z,97.60
2018-05-18T23:30:39.603Z,97.60
2018-05-18T23:33:08.476Z,97.60
2018-05-18T23:35:37.376Z,97.40
2018-05-18T23:38:06.256Z,97.30
2018-05-18T23:40:35.949Z,97.20
2018-05-18T23:43:05.602Z,97.50
2018-05-18T23:45:34.493Z,97.50
2018-05-18T23:48:03.413Z,97.30
2018-05-18T23:50:32.289Z,97.30
2018-05-18T23:53:01.194Z,97.30
2018-05-18T23:55:30.099Z,97.20
2018-05-18T23:57:58.989Z,97.20
